Sea Blackhead, Ireland
Current Conditions -  °F | °C
As of 8:30 PM on Sunday 21 Dec 2014 (Local Time) from EIKN Reporting Station
Light Rain Light Rain  
Wind Chill: 52°   Ceiling: 1600
Heat Index: 52°   Visibility: 6mi
Dew Point: 50°   Wind: 25mph
Humidity: 94%   Direction: 230°SW
Pressure: 29.88"   Gusts: 38mph
Location:  53.5°N, 10.33°W
Report Text: EIKN 211930Z 23022G33KT 200V260 9999 -RA BKN016 BKN031 11/10 Q1012 NOSIG
Loading
Personal Weather Stations






























Interactive Weather Map New forecast layout! Learn more

10-Day Weather Forecast

Advertisements
Track Severe Weather on mobile